createdAt,value
2022-11-28T00:02:13.070Z,3.90
2022-11-28T00:04:40.654Z,4.10
2022-11-28T00:07:08.012Z,4.20
2022-11-28T00:09:35.182Z,4.17
2022-11-28T00:12:02.319Z,3.90
2022-11-28T00:14:29.284Z,3.57
2022-11-28T00:16:56.052Z,4.13
2022-11-28T00:19:22.953Z,3.87
2022-11-28T00:21:49.880Z,4.17
2022-11-28T00:24:16.777Z,3.17
2022-11-28T00:26:43.689Z,3.83
2022-11-28T00:29:11.399Z,4.20
2022-11-28T00:31:43.209Z,3.73
2022-11-28T00:34:12.493Z,3.87
2022-11-28T00:36:39.793Z,3.90
2022-11-28T00:39:08.138Z,7.80
2022-11-28T00:41:35.651Z,3.90
2022-11-28T00:44:02.774Z,3.93
2022-11-28T00:46:29.845Z,4.13
2022-11-28T00:48:58.358Z,3.60
2022-11-28T00:51:28.907Z,3.70
2022-11-28T00:53:57.817Z,3.93
2022-11-28T00:56:28.198Z,3.83
2022-11-28T00:58:56.121Z,4.00
2022-11-28T01:01:35.653Z,3.83
2022-11-28T01:04:06.433Z,3.80
2022-11-28T01:06:39.142Z,4.27
2022-11-28T01:09:10.779Z,3.87
2022-11-28T01:11:39.819Z,4.33
2022-11-28T01:14:07.770Z,4.13
2022-11-28T01:16:34.694Z,4.20
2022-11-28T01:19:01.638Z,4.30
2022-11-28T01:21:28.934Z,4.07
2022-11-28T01:23:55.719Z,4.50
2022-11-28T01:26:25.636Z,3.90
2022-11-28T01:28:52.994Z,4.10
2022-11-28T01:31:22.801Z,3.90
2022-11-28T01:33:50.122Z,4.40
2022-11-28T01:36:18.350Z,4.10
2022-11-28T01:38:45.466Z,4.60
2022-11-28T01:41:13.820Z,4.10
2022-11-28T01:43:59.444Z,4.57
2022-11-28T01:46:26.645Z,4.13
2022-11-28T01:48:56.506Z,4.27
2022-11-28T01:51:23.439Z,3.93
2022-11-28T01:53:50.277Z,4.37
2022-11-28T01:56:28.900Z,4.30
2022-11-28T01:59:01.963Z,4.53
2022-11-28T02:01:29.277Z,4.17
2022-11-28T02:03:58.679Z,3.73
2022-11-28T02:06:27.493Z,3.90
2022-11-28T02:08:55.617Z,4.37
2022-11-28T02:11:43.710Z,4.27
2022-11-28T02:14:38.159Z,4.20
2022-11-28T02:17:43.261Z,4.43
2022-11-28T02:20:18.728Z,4.23
2022-11-28T02:23:04.278Z,4.37
2022-11-28T02:25:49.322Z,4.00
2022-11-28T02:28:40.724Z,3.97
2022-11-28T02:31:41.559Z,4.30
2022-11-28T02:34:24.685Z,4.20
2022-11-28T02:37:00.252Z,3.73
2022-11-28T02:39:51.575Z,3.97
2022-11-28T02:42:25.545Z,4.10
2022-11-28T02:45:18.459Z,4.13
2022-11-28T02:48:03.181Z,3.93
2022-11-28T02:50:42.059Z,3.80
2022-11-28T02:53:14.222Z,4.03
2022-11-28T02:55:43.825Z,3.87
2022-11-28T02:58:12.768Z,3.97
2022-11-28T03:00:44.988Z,3.63
2022-11-28T03:03:38.497Z,3.67
2022-11-28T03:06:20.852Z,3.80
2022-11-28T03:09:13.752Z,4.00
2022-11-28T03:12:04.049Z,4.20
2022-11-28T03:14:54.847Z,3.77
2022-11-28T03:17:27.881Z,4.03
2022-11-28T03:20:10.222Z,3.90
2022-11-28T03:22:37.115Z,3.87
2022-11-28T03:25:25.774Z,4.57
2022-11-28T03:28:03.553Z,4.50
2022-11-28T03:30:37.965Z,4.47
2022-11-28T03:33:06.892Z,3.83
2022-11-28T03:35:39.843Z,4.20
2022-11-28T03:38:15.371Z,3.50
2022-11-28T03:40:49.263Z,4.20
2022-11-28T03:43:21.951Z,4.10
2022-11-28T03:45:55.061Z,4.50
2022-11-28T03:48:30.785Z,3.90
2022-11-28T03:51:07.559Z,3.67
2022-11-28T03:53:55.793Z,3.77
2022-11-28T03:56:30.701Z,4.20
2022-11-28T03:59:08.351Z,4.27
2022-11-28T04:02:01.546Z,4.00
2022-11-28T04:04:37.211Z,4.23
2022-11-28T04:07:19.005Z,4.37
2022-11-28T04:09:50.595Z,3.90
2022-11-28T04:12:32.437Z,3.50
2022-11-28T04:15:30.101Z,3.87
2022-11-28T04:18:04.954Z,4.10
2022-11-28T04:20:53.255Z,4.00
2022-11-28T04:23:22.425Z,3.70
2022-11-28T04:25:58.532Z,4.30
2022-11-28T04:28:29.913Z,3.40
2022-11-28T04:31:01.386Z,3.90
2022-11-28T04:33:32.372Z,4.03
2022-11-28T04:36:00.813Z,4.13
2022-11-28T04:38:29.739Z,3.43
2022-11-28T04:41:20.509Z,3.40
2022-11-28T04:43:58.864Z,3.30
2022-11-28T04:46:32.870Z,3.20
2022-11-28T04:49:01.093Z,2.93
2022-11-28T04:51:39.723Z,3.13
2022-11-28T04:54:31.927Z,3.17
2022-11-28T04:57:12.279Z,2.90
2022-11-28T04:59:41.485Z,3.03
2022-11-28T05:02:09.462Z,3.20
2022-11-28T05:04:37.440Z,2.93
2022-11-28T05:07:07.038Z,3.00
2022-11-28T05:09:34.492Z,2.83
2022-11-28T05:12:01.577Z,3.00
2022-11-28T05:14:28.485Z,3.03
2022-11-28T05:16:55.539Z,2.77
2022-11-28T05:19:22.456Z,2.50
2022-11-28T05:21:49.348Z,2.73
2022-11-28T05:24:16.249Z,2.90
2022-11-28T05:26:43.394Z,2.63
2022-11-28T05:29:10.576Z,2.47
2022-11-28T05:31:37.967Z,2.53
2022-11-28T05:34:05.623Z,2.43
2022-11-28T05:36:32.641Z,2.47
2022-11-28T05:38:59.563Z,2.37
2022-11-28T05:41:29.070Z,2.50
2022-11-28T05:43:57.352Z,2.60
2022-11-28T05:46:25.143Z,2.67
2022-11-28T05:48:52.107Z,2.50
2022-11-28T05:51:19.084Z,2.50
2022-11-28T05:53:45.983Z,2.20
2022-11-28T05:56:16.022Z,2.60
2022-11-28T05:58:43.416Z,2.20
2022-11-28T06:01:19.932Z,2.17
2022-11-28T06:03:47.406Z,2.40
2022-11-28T06:06:21.821Z,2.40
2022-11-28T06:08:49.997Z,2.57
2022-11-28T06:11:16.984Z,2.27
2022-11-28T06:13:45.050Z,2.20
2022-11-28T06:16:15.731Z,2.10
2022-11-28T06:18:42.651Z,2.10
2022-11-28T06:21:11.893Z,1.83
2022-11-28T06:23:39.515Z,2.30
2022-11-28T06:26:15.901Z,1.90
2022-11-28T06:28:42.892Z,2.10
2022-11-28T06:31:12.216Z,1.80
2022-11-28T06:33:39.376Z,1.60
2022-11-28T06:36:07.473Z,1.80
2022-11-28T06:38:35.043Z,2.00
2022-11-28T06:41:06.830Z,2.30
2022-11-28T06:43:33.973Z,1.87
2022-11-28T06:46:01.399Z,1.70
2022-11-28T06:48:28.725Z,1.67
2022-11-28T06:51:03.108Z,1.57
2022-11-28T06:53:31.618Z,1.67
2022-11-28T06:55:59.002Z,1.80
2022-11-28T06:58:26.183Z,1.80
2022-11-28T07:00:53.128Z,1.77
2022-11-28T07:03:19.987Z,1.67
2022-11-28T07:05:46.916Z,1.60
2022-11-28T07:08:13.827Z,1.83
2022-11-28T07:10:40.649Z,1.80
2022-11-28T07:13:07.810Z,1.50
2022-11-28T07:15:34.686Z,1.90
2022-11-28T07:18:01.525Z,2.17
2022-11-28T07:20:28.481Z,2.00
2022-11-28T07:22:55.429Z,1.93
2022-11-28T07:25:22.233Z,1.90
2022-11-28T07:27:49.128Z,2.10
2022-11-28T07:30:15.995Z,1.80
2022-11-28T07:32:42.903Z,2.23
2022-11-28T07:35:09.896Z,2.00
2022-11-28T07:37:36.867Z,2.10
2022-11-28T07:40:04.380Z,2.30
2022-11-28T07:42:31.237Z,2.30
2022-11-28T07:45:04.536Z,2.30
2022-11-28T07:47:31.635Z,2.13
2022-11-28T07:49:58.460Z,2.10
2022-11-28T07:52:25.385Z,1.97
2022-11-28T07:54:52.332Z,1.83
2022-11-28T07:57:19.287Z,2.00
2022-11-28T07:59:46.201Z,2.50
2022-11-28T08:02:13.371Z,2.20
2022-11-28T08:04:47.651Z,2.13
2022-11-28T08:07:16.531Z,1.80
2022-11-28T08:09:43.654Z,1.83
2022-11-28T08:12:10.740Z,2.20
2022-11-28T08:14:37.454Z,1.63
2022-11-28T08:17:04.381Z,2.03
2022-11-28T08:19:35.130Z,1.83
2022-11-28T08:22:02.793Z,2.20
2022-11-28T08:24:29.831Z,2.30
2022-11-28T08:26:57.098Z,1.70
2022-11-28T08:29:23.995Z,1.83
2022-11-28T08:31:50.901Z,1.87
2022-11-28T08:34:17.751Z,3.30
2022-11-28T08:36:44.716Z,2.53
2022-11-28T08:39:27.844Z,2.23
2022-11-28T08:41:57.658Z,1.63
2022-11-28T08:44:25.306Z,2.20
2022-11-28T08:46:53.894Z,2.10
2022-11-28T08:49:20.946Z,2.20
2022-11-28T08:51:47.854Z,2.50
2022-11-28T08:54:15.030Z,2.40
2022-11-28T08:56:42.031Z,2.50
2022-11-28T08:59:09.641Z,2.80
2022-11-28T09:01:36.877Z,2.63
2022-11-28T09:04:04.433Z,3.00
2022-11-28T09:06:33.077Z,2.80
2022-11-28T09:09:00.081Z,3.40
2022-11-28T09:11:26.870Z,3.70
2022-11-28T09:13:55.089Z,3.40
2022-11-28T09:16:22.413Z,3.70
2022-11-28T09:18:49.194Z,4.80
2022-11-28T09:21:16.376Z,4.53
2022-11-28T09:23:44.525Z,4.23
2022-11-28T09:26:11.243Z,4.27
2022-11-28T09:28:38.432Z,4.83
2022-11-28T09:31:07.025Z,5.50
2022-11-28T09:33:34.753Z,5.40
2022-11-28T09:36:11.028Z,4.97
2022-11-28T09:38:38.603Z,5.40
2022-11-28T09:41:30.052Z,5.47
2022-11-28T09:44:03.229Z,5.43
2022-11-28T09:46:34.458Z,5.47
2022-11-28T09:49:06.084Z,5.97
2022-11-28T09:51:52.458Z,5.23
2022-11-28T09:54:29.517Z,5.97
2022-11-28T09:56:57.292Z,5.63
2022-11-28T09:59:27.318Z,5.50
2022-11-28T10:02:15.353Z,6.00
2022-11-28T10:04:46.394Z,6.27
2022-11-28T10:07:23.277Z,6.33
2022-11-28T10:10:17.505Z,6.43
2022-11-28T10:12:59.692Z,6.20
2022-11-28T10:15:52.340Z,5.70
2022-11-28T10:18:44.290Z,6.37
2022-11-28T10:21:31.808Z,5.80
2022-11-28T10:24:04.712Z,5.67
2022-11-28T10:26:37.791Z,5.80
2022-11-28T10:29:18.799Z,5.77
2022-11-28T10:31:47.232Z,5.40
2022-11-28T10:34:29.440Z,5.60
2022-11-28T10:37:08.104Z,5.73
2022-11-28T10:39:37.613Z,5.97
2022-11-28T10:42:15.851Z,5.50
2022-11-28T10:45:23.515Z,5.73
2022-11-28T10:48:39.710Z,5.30
2022-11-28T10:51:19.648Z,5.47
2022-11-28T10:54:22.459Z,5.40
2022-11-28T10:57:15.736Z,5.40
2022-11-28T11:00:04.199Z,5.63
2022-11-28T11:02:43.681Z,5.50
2022-11-28T11:05:20.572Z,4.93
2022-11-28T11:08:10.369Z,4.70
2022-11-28T11:10:43.000Z,4.57
2022-11-28T11:13:26.678Z,4.10
2022-11-28T11:16:00.711Z,5.20
2022-11-28T11:18:32.891Z,5.30
2022-11-28T11:21:21.281Z,5.97
2022-11-28T11:23:49.859Z,5.93
2022-11-28T11:26:30.191Z,5.63
2022-11-28T11:28:57.657Z,5.23
2022-11-28T11:31:31.768Z,5.30
2022-11-28T11:34:04.030Z,6.30
2022-11-28T11:36:34.424Z,5.30
2022-11-28T11:39:19.923Z,5.33
2022-11-28T11:42:09.133Z,5.70
2022-11-28T11:44:36.919Z,5.80
2022-11-28T11:47:09.693Z,5.53
2022-11-28T11:49:44.973Z,5.70
2022-11-28T11:52:12.910Z,5.40
2022-11-28T11:55:04.277Z,5.57
2022-11-28T11:57:51.082Z,5.47
2022-11-28T12:00:19.810Z,6.40
2022-11-28T12:02:53.462Z,5.33
2022-11-28T12:05:25.136Z,5.40
2022-11-28T12:07:59.924Z,5.27
2022-11-28T12:10:31.026Z,4.33
2022-11-28T12:12:57.983Z,5.43
2022-11-28T12:15:40.478Z,5.83
2022-11-28T12:18:25.850Z,5.43
2022-11-28T12:21:20.327Z,5.50
2022-11-28T12:24:12.529Z,5.40
2022-11-28T12:26:53.717Z,5.47
2022-11-28T12:29:35.772Z,4.77
2022-11-28T12:32:29.875Z,5.10
2022-11-28T12:35:17.058Z,4.73
2022-11-28T12:41:30.721Z,5.27
2022-11-28T12:44:02.266Z,5.50
2022-11-28T12:46:39.228Z,5.73
2022-11-28T12:49:15.544Z,6.63
2022-11-28T12:52:04.205Z,6.23
2022-11-28T12:54:54.339Z,5.70
2022-11-28T12:57:39.266Z,6.30
2022-11-28T13:00:18.979Z,5.93
2022-11-28T13:03:10.210Z,6.20
2022-11-28T13:05:59.859Z,6.67
2022-11-28T13:08:49.351Z,6.90
2022-11-28T13:11:51.571Z,6.50
2022-11-28T13:14:25.495Z,6.40
2022-11-28T13:16:54.933Z,7.80
2022-11-28T13:19:50.635Z,6.50
2022-11-28T13:22:26.000Z,7.13
2022-11-28T13:25:03.271Z,7.40
2022-11-28T13:27:46.286Z,6.17
2022-11-28T13:30:26.363Z,7.20
2022-11-28T13:33:02.460Z,7.00
2022-11-28T13:35:29.930Z,6.67
2022-11-28T13:40:57.019Z,6.67
2022-11-28T13:43:46.413Z,7.20
2022-11-28T13:46:14.360Z,6.90
2022-11-28T13:51:32.724Z,7.50
2022-11-28T13:54:18.217Z,7.33
2022-11-28T13:57:08.310Z,7.37
2022-11-28T13:59:36.938Z,7.70
2022-11-28T14:02:17.451Z,7.80
2022-11-28T14:04:45.274Z,7.97
2022-11-28T14:07:26.956Z,7.80
2022-11-28T14:10:01.339Z,8.13
2022-11-28T14:12:42.835Z,8.20
2022-11-28T14:15:21.347Z,9.67
2022-11-28T14:17:51.031Z,10.90
2022-11-28T14:20:43.023Z,9.27
2022-11-28T14:23:27.863Z,8.87
2022-11-28T14:25:55.829Z,8.33
2022-11-28T14:28:32.753Z,9.50
2022-11-28T14:31:08.125Z,9.00
2022-11-28T14:33:42.694Z,9.63
2022-11-28T14:36:29.868Z,9.17
2022-11-28T14:39:04.297Z,8.93
2022-11-28T14:41:31.366Z,9.33
2022-11-28T14:44:36.298Z,9.30
2022-11-28T14:47:27.951Z,9.67
2022-11-28T14:50:07.224Z,10.27
2022-11-28T14:52:39.466Z,10.67
2022-11-28T14:55:08.519Z,10.20
2022-11-28T14:57:41.444Z,10.23
2022-11-28T15:00:24.732Z,9.63
2022-11-28T15:03:23.413Z,9.53
2022-11-28T15:06:02.522Z,9.77
2022-11-28T15:08:54.751Z,9.30
2022-11-28T15:11:56.495Z,9.33
2022-11-28T15:14:25.533Z,7.83
2022-11-28T15:16:58.297Z,9.33
2022-11-28T15:19:30.773Z,9.20
2022-11-28T15:21:57.873Z,9.10
2022-11-28T15:24:29.081Z,9.03
2022-11-28T15:27:21.596Z,9.47
2022-11-28T15:29:59.941Z,10.23
2022-11-28T15:32:30.302Z,9.83
2022-11-28T15:35:02.003Z,10.43
2022-11-28T15:37:34.658Z,10.07
2022-11-28T15:40:06.935Z,9.27
2022-11-28T15:42:36.785Z,9.50
2022-11-28T15:45:18.568Z,9.40
2022-11-28T15:47:46.744Z,9.20
2022-11-28T15:50:13.603Z,8.33
2022-11-28T15:52:40.805Z,7.93
2022-11-28T15:55:16.203Z,8.20
2022-11-28T15:57:43.205Z,7.87
2022-11-28T16:00:15.062Z,7.50
2022-11-28T16:02:44.389Z,7.47
2022-11-28T16:05:16.492Z,7.07
2022-11-28T16:07:44.419Z,7.63
2022-11-28T16:10:25.228Z,7.53
2022-11-28T16:12:59.569Z,6.87
2022-11-28T16:15:27.406Z,7.13
2022-11-28T16:17:55.756Z,8.47
2022-11-28T16:20:30.439Z,9.07
2022-11-28T16:23:09.450Z,8.73
2022-11-28T16:25:37.116Z,8.40
2022-11-28T16:28:04.565Z,9.33
2022-11-28T16:30:43.876Z,8.97
2022-11-28T16:33:35.731Z,9.93
2022-11-28T16:36:19.218Z,10.43
2022-11-28T16:38:48.271Z,10.33
2022-11-28T16:41:27.659Z,10.60
2022-11-28T16:43:59.794Z,11.17
2022-11-28T16:46:33.207Z,10.60
2022-11-28T16:49:01.174Z,10.10
2022-11-28T16:51:32.677Z,9.97
2022-11-28T16:54:20.827Z,9.67
2022-11-28T16:56:47.851Z,10.00
2022-11-28T16:59:19.909Z,10.07
2022-11-28T17:01:53.546Z,10.77
2022-11-28T17:04:24.778Z,10.17
2022-11-28T17:06:53.698Z,11.00
2022-11-28T17:09:21.377Z,10.20
2022-11-28T17:11:53.613Z,9.27
2022-11-28T17:14:20.551Z,10.40
2022-11-28T17:16:47.526Z,9.30
2022-11-28T17:19:14.691Z,9.37
2022-11-28T17:21:46.732Z,9.03
2022-11-28T17:24:20.384Z,9.43
2022-11-28T17:26:47.661Z,9.17
2022-11-28T17:29:15.446Z,9.07
2022-11-28T17:31:44.049Z,8.87
2022-11-28T17:34:23.938Z,9.53
2022-11-28T17:36:51.847Z,7.90
2022-11-28T17:39:19.896Z,8.43
2022-11-28T17:41:47.666Z,7.93
2022-11-28T17:44:23.041Z,8.47
2022-11-28T17:46:51.356Z,8.10
2022-11-28T17:49:19.273Z,8.43
2022-11-28T17:51:46.707Z,7.60
2022-11-28T17:54:16.703Z,8.67
2022-11-28T17:56:45.290Z,8.93
2022-11-28T17:59:14.014Z,8.00
2022-11-28T18:01:41.370Z,8.17
2022-11-28T18:04:08.634Z,8.30
2022-11-28T18:06:35.872Z,8.33
2022-11-28T18:09:11.449Z,8.10
2022-11-28T18:11:40.650Z,8.60
2022-11-28T18:14:09.065Z,7.57
2022-11-28T18:16:36.577Z,7.97
2022-11-28T18:19:04.571Z,7.57
2022-11-28T18:21:32.260Z,7.63
2022-11-28T18:23:59.079Z,7.83
2022-11-28T18:26:26.536Z,7.87
2022-11-28T18:28:54.526Z,7.97
2022-11-28T18:31:25.419Z,7.77
2022-11-28T18:33:57.516Z,7.70
2022-11-28T18:36:30.726Z,7.50
2022-11-28T18:38:59.891Z,8.13
2022-11-28T18:41:27.650Z,7.90
2022-11-28T18:43:59.548Z,8.63
2022-11-28T18:46:29.155Z,7.93
2022-11-28T18:48:56.618Z,7.60
2022-11-28T18:51:26.531Z,7.73
2022-11-28T18:53:55.133Z,8.13
2022-11-28T18:56:24.196Z,7.73
2022-11-28T18:58:53.393Z,8.03
2022-11-28T19:01:25.140Z,7.20
2022-11-28T19:03:55.541Z,7.97
2022-11-28T19:06:23.921Z,6.93
2022-11-28T19:08:57.731Z,7.90
2022-11-28T19:11:25.489Z,7.37
2022-11-28T19:13:53.576Z,7.37
2022-11-28T19:16:30.891Z,7.33
2022-11-28T19:18:59.181Z,7.13
2022-11-28T19:21:28.466Z,7.30
2022-11-28T19:23:57.041Z,7.07
2022-11-28T19:26:26.526Z,7.97
2022-11-28T19:28:53.564Z,11.83
2022-11-28T19:31:23.783Z,8.23
2022-11-28T19:34:12.766Z,7.10
2022-11-28T19:36:42.388Z,7.37
2022-11-28T19:39:23.319Z,7.77
2022-11-28T19:41:54.509Z,6.93
2022-11-28T19:44:24.715Z,7.23
2022-11-28T19:46:53.488Z,7.60
2022-11-28T19:49:23.477Z,6.90
2022-11-28T19:51:51.227Z,7.53
2022-11-28T19:54:21.797Z,7.13
2022-11-28T19:56:49.789Z,7.03
2022-11-28T19:59:18.163Z,6.70
2022-11-28T20:01:48.181Z,7.10
2022-11-28T20:04:15.935Z,7.80
2022-11-28T20:06:43.632Z,7.23
2022-11-28T20:09:12.912Z,7.63
2022-11-28T20:11:43.162Z,7.30
2022-11-28T20:14:13.999Z,7.43
2022-11-28T20:16:41.443Z,8.00
2022-11-28T20:19:10.632Z,13.47
2022-11-28T20:21:37.768Z,8.97
2022-11-28T20:24:07.607Z,7.23
2022-11-28T20:26:41.221Z,7.90
2022-11-28T20:29:12.611Z,8.13
2022-11-28T20:31:46.738Z,6.83
2022-11-28T20:34:17.242Z,7.30
2022-11-28T20:36:45.076Z,7.47
2022-11-28T20:39:13.243Z,6.93
2022-11-28T20:41:40.127Z,6.77
2022-11-28T20:44:07.248Z,6.50
2022-11-28T20:46:35.940Z,6.33
2022-11-28T20:49:07.117Z,6.67
2022-11-28T20:51:35.790Z,6.37
2022-11-28T20:54:04.915Z,6.27
2022-11-28T20:56:51.596Z,6.27
2022-11-28T20:59:22.737Z,5.70
2022-11-28T21:01:49.667Z,5.80
2022-11-28T21:04:17.845Z,6.23
2022-11-28T21:06:47.266Z,6.47
2022-11-28T21:09:15.490Z,6.53
2022-11-28T21:11:56.768Z,6.73
2022-11-28T21:14:26.706Z,6.57
2022-11-28T21:16:53.621Z,6.67
2022-11-28T21:19:20.975Z,6.60
2022-11-28T21:21:48.012Z,6.83
2022-11-28T21:24:14.877Z,6.90
2022-11-28T21:26:46.662Z,6.50
2022-11-28T21:29:17.145Z,6.37
2022-11-28T21:31:45.207Z,6.73
2022-11-28T21:34:17.017Z,7.10
2022-11-28T21:36:44.327Z,6.20
2022-11-28T21:39:18.892Z,6.20
2022-11-28T21:41:46.377Z,6.43
2022-11-28T21:44:13.187Z,6.10
2022-11-28T21:46:40.166Z,6.10
2022-11-28T21:49:07.569Z,5.83
2022-11-28T21:51:38.892Z,6.70
2022-11-28T21:54:06.384Z,6.83
2022-11-28T21:56:33.691Z,5.77
2022-11-28T21:59:00.784Z,6.10
2022-11-28T22:01:28.722Z,6.03
2022-11-28T22:04:02.069Z,6.40
2022-11-28T22:06:30.238Z,6.03
2022-11-28T22:08:58.078Z,6.27
2022-11-28T22:11:25.425Z,5.90
2022-11-28T22:13:52.870Z,4.97
2022-11-28T22:16:25.735Z,5.87
2022-11-28T22:18:55.412Z,6.47
2022-11-28T22:24:10.769Z,5.73
2022-11-28T22:26:38.096Z,5.97
2022-11-28T22:29:05.540Z,6.33
2022-11-28T22:31:34.031Z,5.90
2022-11-28T22:34:00.842Z,5.53
2022-11-28T22:36:28.315Z,6.03
2022-11-28T22:38:57.570Z,5.93
2022-11-28T22:41:28.766Z,6.47
2022-11-28T22:44:00.886Z,5.73
2022-11-28T22:46:29.709Z,5.73
2022-11-28T22:48:59.823Z,5.67
2022-11-28T22:51:28.047Z,6.17
2022-11-28T22:53:56.545Z,5.43
2022-11-28T22:56:26.079Z,5.77
2022-11-28T22:58:52.942Z,5.60
2022-11-28T23:01:26.889Z,5.27
2022-11-28T23:03:55.048Z,5.90
2022-11-28T23:06:28.401Z,5.40
2022-11-28T23:08:56.989Z,4.97
2022-11-28T23:11:29.474Z,4.83
2022-11-28T23:13:56.823Z,5.03
2022-11-28T23:16:29.638Z,4.90
2022-11-28T23:18:59.577Z,5.10
2022-11-28T23:21:29.990Z,4.60
2022-11-28T23:23:56.987Z,4.10
2022-11-28T23:26:28.494Z,4.17
2022-11-28T23:28:55.896Z,4.23
2022-11-28T23:31:29.325Z,4.30
2022-11-28T23:33:57.204Z,4.10
2022-11-28T23:36:26.483Z,4.27
2022-11-28T23:38:58.967Z,3.73
2022-11-28T23:41:27.522Z,4.23
2022-11-28T23:43:54.606Z,3.83
2022-11-28T23:46:22.513Z,3.97
2022-11-28T23:48:50.122Z,3.97
2022-11-28T23:51:20.601Z,3.93
2022-11-28T23:53:48.002Z,4.27
2022-11-28T23:56:18.402Z,3.97
2022-11-28T23:58:46.030Z,4.17
